createdAt,value
2022-09-03T00:02:24.266Z,100.00
2022-09-03T00:05:05.742Z,100.00
2022-09-03T00:07:42.223Z,100.00
2022-09-03T00:10:17.561Z,100.00
2022-09-03T00:12:49.049Z,100.00
2022-09-03T00:15:21.640Z,100.00
2022-09-03T00:17:55.821Z,100.00
2022-09-03T00:20:32.002Z,100.00
2022-09-03T00:23:05.437Z,100.00
2022-09-03T00:25:39.867Z,100.00
2022-09-03T00:28:17.764Z,100.00
2022-09-03T00:30:57.318Z,100.00
2022-09-03T00:33:29.896Z,100.00
2022-09-03T00:36:12.533Z,100.00
2022-09-03T00:38:41.957Z,100.00
2022-09-03T00:41:22.431Z,100.00
2022-09-03T00:44:21.603Z,100.00
2022-09-03T00:46:57.527Z,100.00
2022-09-03T00:49:38.766Z,100.00
2022-09-03T00:52:17.174Z,100.00
2022-09-03T00:54:57.398Z,100.00
2022-09-03T00:57:41.546Z,100.00
2022-09-03T01:00:15.078Z,100.00
2022-09-03T01:03:01.186Z,100.00
2022-09-03T01:05:56.529Z,100.00
2022-09-03T01:08:49.247Z,100.00
2022-09-03T01:11:27.542Z,100.00
2022-09-03T01:14:06.467Z,100.00
2022-09-03T01:16:46.111Z,100.00
2022-09-03T01:19:39.905Z,100.00
2022-09-03T01:22:32.800Z,100.00
2022-09-03T01:25:22.695Z,100.00
2022-09-03T01:28:20.506Z,100.00
2022-09-03T01:30:56.418Z,100.00
2022-09-03T01:33:32.775Z,100.00
2022-09-03T01:36:10.165Z,100.00
2022-09-03T01:38:44.736Z,100.00
2022-09-03T01:41:39.783Z,100.00
2022-09-03T01:44:18.083Z,100.00
2022-09-03T01:46:52.182Z,100.00
2022-09-03T01:49:26.168Z,100.00
2022-09-03T01:52:07.126Z,100.00
2022-09-03T01:55:03.089Z,100.00
2022-09-03T01:57:47.271Z,100.00
2022-09-03T02:00:20.709Z,100.00
2022-09-03T02:02:53.042Z,100.00
2022-09-03T02:05:24.958Z,100.00
2022-09-03T02:08:01.066Z,100.00
2022-09-03T02:10:35.408Z,100.00
2022-09-03T02:13:09.756Z,100.00
2022-09-03T02:15:47.209Z,100.00
2022-09-03T02:18:22.444Z,100.00
2022-09-03T02:20:54.948Z,100.00
2022-09-03T02:23:28.228Z,100.00
2022-09-03T02:26:00.262Z,100.00
2022-09-03T02:28:30.914Z,100.00
2022-09-03T02:31:02.869Z,100.00
2022-09-03T02:33:33.922Z,100.00
2022-09-03T02:36:05.514Z,100.00
2022-09-03T02:38:34.978Z,100.00
2022-09-03T02:41:08.502Z,100.00
2022-09-03T02:43:43.674Z,100.00
2022-09-03T02:46:19.008Z,100.00
2022-09-03T02:48:53.250Z,100.00
2022-09-03T02:51:22.927Z,100.00
2022-09-03T02:53:52.956Z,100.00
2022-09-03T02:56:26.922Z,100.00
2022-09-03T02:58:56.327Z,100.00
2022-09-03T03:01:28.652Z,100.00
2022-09-03T03:03:58.203Z,100.00
2022-09-03T03:06:28.260Z,100.00
2022-09-03T03:08:57.824Z,100.00
2022-09-03T03:11:28.290Z,100.00
2022-09-03T03:14:11.654Z,100.00
2022-09-03T03:16:42.387Z,100.00
2022-09-03T03:19:11.749Z,100.00
2022-09-03T03:21:41.254Z,100.00
2022-09-03T03:24:11.141Z,100.00
2022-09-03T03:26:41.192Z,100.00
2022-09-03T03:29:16.009Z,100.00
2022-09-03T03:31:46.780Z,100.00
2022-09-03T03:34:16.078Z,100.00
2022-09-03T03:36:45.334Z,100.00
2022-09-03T03:39:15.016Z,100.00
2022-09-03T03:41:44.471Z,100.00
2022-09-03T03:44:13.761Z,100.00
2022-09-03T03:46:43.428Z,100.00
2022-09-03T03:49:14.156Z,100.00
2022-09-03T03:51:43.417Z,100.00
2022-09-03T03:54:12.904Z,100.00
2022-09-03T03:56:55.232Z,100.00
2022-09-03T03:59:25.028Z,100.00
2022-09-03T04:01:56.223Z,100.00
2022-09-03T04:04:26.935Z,100.00
2022-09-03T04:06:56.201Z,100.00
2022-09-03T04:09:25.626Z,100.00
2022-09-03T04:11:57.868Z,100.00
2022-09-03T04:14:27.364Z,100.00
2022-09-03T04:16:56.959Z,100.00
2022-09-03T04:19:29.567Z,100.00
2022-09-03T04:21:58.967Z,100.00
2022-09-03T04:24:28.591Z,100.00
2022-09-03T04:26:57.801Z,100.00
2022-09-03T04:29:30.741Z,100.00
2022-09-03T04:32:17.640Z,100.00
2022-09-03T04:34:48.618Z,100.00
2022-09-03T04:37:19.893Z,100.00
2022-09-03T04:39:49.288Z,100.00
2022-09-03T04:42:18.668Z,100.00
2022-09-03T04:44:47.969Z,100.00
2022-09-03T04:47:17.318Z,100.00
2022-09-03T04:49:47.962Z,100.00
2022-09-03T04:52:17.365Z,100.00
2022-09-03T04:54:46.610Z,100.00
2022-09-03T04:57:16.013Z,100.00
2022-09-03T04:59:45.406Z,100.00
2022-09-03T05:02:15.535Z,100.00
2022-09-03T05:04:44.936Z,100.00
2022-09-03T05:07:15.773Z,100.00
2022-09-03T05:09:49.786Z,100.00
2022-09-03T05:12:19.067Z,100.00
2022-09-03T05:14:48.632Z,100.00
2022-09-03T05:17:17.950Z,100.00
2022-09-03T05:19:47.291Z,100.00
2022-09-03T05:22:21.270Z,100.00
2022-09-03T05:24:51.063Z,100.00
2022-09-03T05:27:20.833Z,100.00
2022-09-03T05:29:50.049Z,100.00
2022-09-03T05:32:19.274Z,100.00
2022-09-03T05:34:48.974Z,100.00
2022-09-03T05:37:19.717Z,100.00
2022-09-03T05:39:49.058Z,100.00
2022-09-03T05:42:18.398Z,100.00
2022-09-03T05:44:49.463Z,100.00
2022-09-03T05:47:19.341Z,100.00
2022-09-03T05:49:48.879Z,100.00
2022-09-03T05:52:21.685Z,100.00
2022-09-03T05:54:51.290Z,100.00
2022-09-03T05:57:20.740Z,100.00
2022-09-03T05:59:51.113Z,100.00
2022-09-03T06:02:20.718Z,100.00
2022-09-03T06:04:53.873Z,100.00
2022-09-03T06:07:26.182Z,100.00
2022-09-03T06:09:56.272Z,100.00
2022-09-03T06:12:25.768Z,100.00
2022-09-03T06:14:55.355Z,100.00
2022-09-03T06:17:25.912Z,100.00
2022-09-03T06:19:55.531Z,100.00
2022-09-03T06:22:28.399Z,100.00
2022-09-03T06:24:57.988Z,100.00
2022-09-03T06:27:27.528Z,100.00
2022-09-03T06:29:59.563Z,100.00
2022-09-03T06:32:29.910Z,100.00
2022-09-03T06:34:59.369Z,100.00
2022-09-03T06:37:30.274Z,100.00
2022-09-03T06:39:59.868Z,100.00
2022-09-03T06:42:29.832Z,100.00
2022-09-03T06:44:59.394Z,100.00
2022-09-03T06:47:30.311Z,100.00
2022-09-03T06:50:00.183Z,100.00
2022-09-03T06:52:31.372Z,100.00
2022-09-03T06:55:01.106Z,100.00
2022-09-03T06:57:30.764Z,100.00
2022-09-03T07:00:00.330Z,100.00
2022-09-03T07:02:30.045Z,100.00
2022-09-03T07:05:00.428Z,100.00
2022-09-03T07:07:31.372Z,100.00
2022-09-03T07:10:01.809Z,100.00
2022-09-03T07:12:35.020Z,100.00
2022-09-03T07:15:05.807Z,100.00
2022-09-03T07:17:35.520Z,100.00
2022-09-03T07:20:05.892Z,100.00
2022-09-03T07:22:36.957Z,100.00
2022-09-03T07:25:08.161Z,100.00
2022-09-03T07:27:37.711Z,100.00
2022-09-03T07:30:10.627Z,100.00
2022-09-03T07:32:40.979Z,100.00
2022-09-03T07:35:10.719Z,100.00
2022-09-03T07:45:37.515Z,100.00
2022-09-03T07:48:07.198Z,100.00
2022-09-03T07:50:39.264Z,100.00
2022-09-03T07:53:08.964Z,100.00
2022-09-03T08:01:41.554Z,100.00
2022-09-03T08:04:12.042Z,100.00
2022-09-03T08:06:42.245Z,100.00
2022-09-03T08:09:14.739Z,100.00
2022-09-03T08:11:45.534Z,100.00
2022-09-03T08:14:16.486Z,100.00
2022-09-03T08:16:48.916Z,100.00
2022-09-03T08:19:19.578Z,100.00
2022-09-03T08:21:49.696Z,100.00
2022-09-03T08:24:21.246Z,100.00
2022-09-03T08:26:52.368Z,100.00
2022-09-03T08:29:23.201Z,100.00
2022-09-03T08:31:55.117Z,100.00
2022-09-03T08:34:25.007Z,100.00
2022-09-03T08:36:54.668Z,100.00
2022-09-03T08:39:24.149Z,100.00
2022-09-03T08:42:37.895Z,100.00
2022-09-03T08:45:10.197Z,100.00
2022-09-03T08:47:48.303Z,100.00
2022-09-03T08:50:26.925Z,100.00
2022-09-03T08:53:03.571Z,100.00
2022-09-03T08:55:42.654Z,100.00
2022-09-03T08:58:16.093Z,100.00
2022-09-03T09:01:01.241Z,100.00
2022-09-03T09:03:52.477Z,100.00
2022-09-03T09:06:34.884Z,100.00
2022-09-03T09:09:19.440Z,100.00
2022-09-03T09:12:08.534Z,100.00
2022-09-03T09:14:52.041Z,100.00
2022-09-03T09:18:00.125Z,100.00
2022-09-03T09:20:42.739Z,100.00
2022-09-03T09:23:17.193Z,100.00
2022-09-03T09:25:51.091Z,100.00
2022-09-03T09:28:23.695Z,100.00
2022-09-03T09:30:56.901Z,100.00
2022-09-03T09:33:26.693Z,100.00
2022-09-03T09:36:03.313Z,100.00
2022-09-03T09:38:37.410Z,100.00
2022-09-03T09:41:13.253Z,100.00
2022-09-03T09:43:43.565Z,100.00
2022-09-03T09:46:18.078Z,100.00
2022-09-03T09:48:53.786Z,100.00
2022-09-03T09:51:30.869Z,100.00
2022-09-03T09:54:13.778Z,100.00
2022-09-03T09:56:44.848Z,100.00
2022-09-03T09:59:16.252Z,100.00
2022-09-03T10:01:47.041Z,100.00
2022-09-03T10:04:33.190Z,100.00
2022-09-03T10:07:20.645Z,100.00
2022-09-03T10:10:06.869Z,100.00
2022-09-03T10:12:43.416Z,100.00
2022-09-03T10:15:25.039Z,100.00
2022-09-03T10:18:04.540Z,100.00
2022-09-03T10:20:44.410Z,100.00
2022-09-03T10:23:23.521Z,100.00
2022-09-03T10:26:07.441Z,100.00
2022-09-03T10:28:42.564Z,100.00
2022-09-03T10:31:43.149Z,100.00
2022-09-03T10:34:23.780Z,100.00
2022-09-03T10:37:08.474Z,100.00
2022-09-03T10:40:01.890Z,100.00
2022-09-03T10:42:45.783Z,100.00
2022-09-03T10:45:24.539Z,100.00
2022-09-03T10:48:42.554Z,100.00
2022-09-03T10:51:21.508Z,100.00
2022-09-03T10:54:17.711Z,100.00
2022-09-03T10:57:02.886Z,100.00
2022-09-03T10:59:51.680Z,100.00
2022-09-03T11:03:21.110Z,100.00
2022-09-03T11:06:03.452Z,100.00
2022-09-03T11:08:40.206Z,100.00
2022-09-03T11:11:20.016Z,100.00
2022-09-03T11:13:58.143Z,100.00
2022-09-03T11:16:35.230Z,100.00
2022-09-03T11:19:08.431Z,100.00
2022-09-03T11:21:41.903Z,100.00
2022-09-03T11:24:18.796Z,100.00
2022-09-03T11:26:58.862Z,100.00
2022-09-03T11:29:39.964Z,100.00
2022-09-03T11:32:18.175Z,100.00
2022-09-03T11:34:51.784Z,100.00
2022-09-03T11:37:26.022Z,100.00
2022-09-03T11:40:01.272Z,100.00
2022-09-03T11:42:36.031Z,100.00
2022-09-03T11:45:37.584Z,100.00
2022-09-03T11:48:35.929Z,96.13
2022-09-03T11:51:06.129Z,98.63
2022-09-03T11:53:37.726Z,98.34
2022-09-03T11:56:20.611Z,95.88
2022-09-03T11:59:18.191Z,92.33
2022-09-03T12:01:59.044Z,89.99
2022-09-03T12:04:37.087Z,92.34
2022-09-03T12:07:38.676Z,82.84
2022-09-03T12:10:35.915Z,87.49
2022-09-03T12:13:30.019Z,84.33
2022-09-03T12:16:27.545Z,90.04
2022-09-03T12:19:10.223Z,93.81
2022-09-03T12:21:42.733Z,75.59
2022-09-03T12:24:14.435Z,81.25
2022-09-03T12:26:44.845Z,77.95
2022-09-03T12:29:27.878Z,79.41
2022-09-03T12:32:07.540Z,71.66
2022-09-03T12:34:38.405Z,68.10
2022-09-03T12:40:26.293Z,66.68
2022-09-03T12:43:37.096Z,67.73
2022-09-03T12:48:40.525Z,63.70
2022-09-03T12:54:09.673Z,70.13
2022-09-03T12:56:42.607Z,69.59
2022-09-03T12:59:19.142Z,70.44
2022-09-03T13:01:53.337Z,69.72
2022-09-03T13:04:28.126Z,66.07
2022-09-03T13:07:05.300Z,65.79
2022-09-03T13:09:39.280Z,64.98
2022-09-03T13:12:21.710Z,56.52
2022-09-03T13:14:52.685Z,55.49
2022-09-03T13:17:37.754Z,54.77
2022-09-03T13:20:24.527Z,54.45
2022-09-03T13:23:44.551Z,57.25
2022-09-03T13:26:28.705Z,57.89
2022-09-03T13:29:18.617Z,59.98
2022-09-03T13:31:51.956Z,63.16
2022-09-03T13:34:26.212Z,64.95
2022-09-03T13:37:00.849Z,66.32
2022-09-03T13:39:36.692Z,68.58
2022-09-03T13:42:11.083Z,70.84
2022-09-03T13:44:46.496Z,70.26
2022-09-03T13:47:29.028Z,73.88
2022-09-03T13:50:22.267Z,76.36
2022-09-03T13:52:59.118Z,81.22
2022-09-03T13:55:38.910Z,84.16
2022-09-03T13:58:21.169Z,90.35
2022-09-03T14:01:09.254Z,100.00
2022-09-03T14:03:49.099Z,100.00
2022-09-03T14:06:40.988Z,100.00
2022-09-03T14:09:26.671Z,100.00
2022-09-03T14:12:07.436Z,100.00
2022-09-03T14:14:53.695Z,100.00
2022-09-03T14:17:42.357Z,100.00
2022-09-03T14:20:15.184Z,100.00
2022-09-03T14:22:54.966Z,100.00
2022-09-03T14:25:26.917Z,100.00
2022-09-03T14:28:14.373Z,100.00
2022-09-03T14:30:49.640Z,100.00
2022-09-03T14:33:33.143Z,100.00
2022-09-03T14:36:28.250Z,100.00
2022-09-03T14:39:24.450Z,100.00
2022-09-03T14:42:11.373Z,100.00
2022-09-03T14:46:06.121Z,100.00
2022-09-03T14:58:30.505Z,100.00
2022-09-03T15:01:05.325Z,100.00
2022-09-03T15:04:32.641Z,100.00
2022-09-03T15:07:34.327Z,100.00
2022-09-03T15:11:02.211Z,100.00
2022-09-03T15:13:37.375Z,100.00
2022-09-03T15:16:31.403Z,100.00
2022-09-03T15:19:39.077Z,100.00
2022-09-03T15:22:28.755Z,100.00
2022-09-03T15:25:15.648Z,100.00
2022-09-03T15:28:07.110Z,100.00
2022-09-03T15:30:44.750Z,100.00
2022-09-03T15:33:28.516Z,100.00
2022-09-03T15:36:17.717Z,100.00
2022-09-03T15:38:57.121Z,100.00
2022-09-03T15:41:40.195Z,100.00
2022-09-03T15:44:19.606Z,100.00
2022-09-03T15:46:59.799Z,100.00
2022-09-03T15:49:54.428Z,100.00
2022-09-03T15:52:40.391Z,100.00
2022-09-03T15:55:16.581Z,100.00
2022-09-03T15:58:06.703Z,100.00
2022-09-03T16:01:00.385Z,100.00
2022-09-03T16:03:59.605Z,100.00
2022-09-03T16:06:40.144Z,100.00
2022-09-03T16:09:28.540Z,100.00
2022-09-03T16:12:11.946Z,100.00
2022-09-03T16:14:48.806Z,100.00
2022-09-03T16:17:30.521Z,100.00
2022-09-03T16:20:07.798Z,100.00
2022-09-03T16:22:48.016Z,100.00
2022-09-03T16:25:23.476Z,100.00
2022-09-03T16:28:08.077Z,100.00
2022-09-03T16:31:04.849Z,100.00
2022-09-03T16:33:48.966Z,100.00
2022-09-03T16:36:36.347Z,100.00
2022-09-03T16:39:23.541Z,100.00
2022-09-03T16:42:06.879Z,100.00
2022-09-03T16:44:59.687Z,100.00
2022-09-03T16:47:51.943Z,100.00
2022-09-03T16:50:43.484Z,100.00
2022-09-03T16:53:28.574Z,100.00
2022-09-03T16:56:29.790Z,100.00
2022-09-03T16:59:12.132Z,100.00
2022-09-03T17:02:23.817Z,100.00
2022-09-03T17:05:29.544Z,100.00
2022-09-03T17:08:20.267Z,100.00
2022-09-03T17:11:00.909Z,100.00
2022-09-03T17:14:03.706Z,100.00
2022-09-03T17:16:52.445Z,100.00
2022-09-03T17:19:33.926Z,100.00
2022-09-03T17:22:23.662Z,100.00
2022-09-03T17:25:02.961Z,100.00
2022-09-03T17:27:51.643Z,100.00
2022-09-03T17:30:30.757Z,100.00
2022-09-03T17:33:45.531Z,100.00
2022-09-03T17:36:19.346Z,100.00
2022-09-03T17:39:51.261Z,100.00
2022-09-03T17:42:33.075Z,100.00
2022-09-03T17:45:15.700Z,100.00
2022-09-03T17:48:21.830Z,100.00
2022-09-03T17:50:59.291Z,100.00
2022-09-03T17:53:40.609Z,100.00
2022-09-03T17:56:24.533Z,100.00
2022-09-03T17:59:09.507Z,100.00
2022-09-03T18:01:50.264Z,100.00
2022-09-03T18:04:42.980Z,100.00
2022-09-03T18:07:25.390Z,100.00
2022-09-03T18:10:09.320Z,100.00
2022-09-03T18:12:52.701Z,100.00
2022-09-03T18:15:41.072Z,100.00
2022-09-03T18:18:21.897Z,100.00
2022-09-03T18:21:24.350Z,100.00
2022-09-03T18:24:24.804Z,100.00
2022-09-03T18:27:18.697Z,100.00
2022-09-03T18:30:16.989Z,100.00
2022-09-03T18:33:04.045Z,100.00
2022-09-03T18:35:55.578Z,100.00
2022-09-03T18:38:46.780Z,100.00
2022-09-03T18:42:06.141Z,100.00
2022-09-03T18:45:22.018Z,100.00
2022-09-03T18:48:26.974Z,100.00
2022-09-03T18:51:26.613Z,100.00
2022-09-03T18:54:56.948Z,100.00
2022-09-03T18:57:48.713Z,100.00
2022-09-03T19:00:37.694Z,100.00
2022-09-03T19:03:48.023Z,100.00
2022-09-03T19:06:52.992Z,100.00
2022-09-03T19:10:00.147Z,100.00
2022-09-03T19:13:13.085Z,100.00
2022-09-03T19:16:13.586Z,100.00
2022-09-03T19:19:39.111Z,100.00
2022-09-03T19:22:29.491Z,100.00
2022-09-03T19:25:24.413Z,100.00
2022-09-03T19:28:29.078Z,100.00
2022-09-03T19:31:55.152Z,100.00
2022-09-03T19:35:20.061Z,100.00
2022-09-03T19:38:25.824Z,100.00
2022-09-03T19:41:30.964Z,100.00
2022-09-03T19:44:48.445Z,100.00
2022-09-03T19:47:50.661Z,100.00
2022-09-03T19:50:43.711Z,100.00
2022-09-03T19:53:36.648Z,100.00
2022-09-03T19:56:33.906Z,100.00
2022-09-03T19:59:30.363Z,100.00
2022-09-03T20:02:18.943Z,100.00
2022-09-03T20:05:16.624Z,100.00
2022-09-03T20:08:06.481Z,100.00
2022-09-03T20:10:37.656Z,100.00
2022-09-03T20:13:13.390Z,100.00
2022-09-03T20:15:58.936Z,100.00
2022-09-03T20:18:43.798Z,100.00
2022-09-03T20:21:24.390Z,100.00
2022-09-03T20:24:11.212Z,100.00
2022-09-03T20:26:54.070Z,100.00
2022-09-03T20:29:54.629Z,100.00
2022-09-03T20:32:56.976Z,100.00
2022-09-03T20:35:43.540Z,100.00
2022-09-03T20:38:45.576Z,100.00
2022-09-03T20:41:24.990Z,100.00
2022-09-03T20:44:26.562Z,100.00
2022-09-03T20:47:21.209Z,100.00
2022-09-03T20:50:05.411Z,100.00
2022-09-03T20:52:49.404Z,100.00
2022-09-03T20:55:25.249Z,100.00
2022-09-03T20:58:04.588Z,100.00
2022-09-03T21:00:50.159Z,100.00
2022-09-03T21:03:23.798Z,100.00
2022-09-03T21:06:15.970Z,100.00
2022-09-03T21:09:18.245Z,100.00
2022-09-03T21:12:05.163Z,100.00
2022-09-03T21:14:41.440Z,100.00
2022-09-03T21:17:31.868Z,100.00
2022-09-03T21:20:31.820Z,100.00
2022-09-03T21:23:17.319Z,100.00
2022-09-03T21:25:56.286Z,100.00
2022-09-03T21:28:38.567Z,100.00
2022-09-03T21:31:25.971Z,100.00
2022-09-03T21:34:08.919Z,100.00
2022-09-03T21:36:43.015Z,100.00
2022-09-03T21:39:21.927Z,100.00
2022-09-03T21:42:02.573Z,100.00
2022-09-03T21:44:53.198Z,100.00
2022-09-03T21:47:25.931Z,100.00
2022-09-03T21:50:10.912Z,100.00
2022-09-03T21:52:53.183Z,100.00
2022-09-03T21:55:32.379Z,100.00
2022-09-03T21:58:21.288Z,100.00
2022-09-03T22:00:56.957Z,100.00
2022-09-03T22:03:26.624Z,100.00
2022-09-03T22:06:04.809Z,100.00
2022-09-03T22:08:45.473Z,100.00
2022-09-03T22:11:24.852Z,100.00
2022-09-03T22:14:07.364Z,100.00
2022-09-03T22:16:47.142Z,100.00
2022-09-03T22:19:18.116Z,100.00
2022-09-03T22:21:59.593Z,100.00
2022-09-03T22:24:40.807Z,100.00
2022-09-03T22:27:20.425Z,100.00
2022-09-03T22:30:05.018Z,100.00
2022-09-03T22:32:54.893Z,100.00
2022-09-03T22:35:46.464Z,100.00
2022-09-03T22:39:11.779Z,100.00
2022-09-03T22:42:07.724Z,100.00
2022-09-03T22:45:09.947Z,100.00
2022-09-03T22:47:54.253Z,100.00
2022-09-03T22:50:32.912Z,100.00
2022-09-03T22:53:15.035Z,100.00
2022-09-03T22:55:58.740Z,100.00
2022-09-03T22:58:36.791Z,100.00
2022-09-03T23:01:16.503Z,100.00
2022-09-03T23:03:58.836Z,100.00
2022-09-03T23:06:35.656Z,100.00
2022-09-03T23:09:09.360Z,100.00
2022-09-03T23:11:45.523Z,100.00
2022-09-03T23:14:24.145Z,100.00
2022-09-03T23:17:01.180Z,100.00
2022-09-03T23:19:40.994Z,100.00
2022-09-03T23:22:19.600Z,100.00
2022-09-03T23:24:55.425Z,100.00
2022-09-03T23:27:36.321Z,100.00
2022-09-03T23:30:08.647Z,100.00
2022-09-03T23:32:38.426Z,100.00
2022-09-03T23:35:16.185Z,100.00
2022-09-03T23:38:04.564Z,100.00
2022-09-03T23:40:47.749Z,100.00
2022-09-03T23:44:04.171Z,100.00
2022-09-03T23:46:43.313Z,100.00
2022-09-03T23:49:42.166Z,100.00
2022-09-03T23:52:49.891Z,100.00
2022-09-03T23:55:40.957Z,100.00
2022-09-03T23:58:23.475Z,100.00
